sensor_id;sensor_type;location;lat;lon;timestamp;temperature;humidity
57058;DHT22;74999;52.848;6.748;2024-01-30T00:02:16;7.60;99.90
57058;DHT22;74999;52.848;6.748;2024-01-30T00:04:42;7.60;99.90
57058;DHT22;74999;52.848;6.748;2024-01-30T00:07:07;7.70;99.90
57058;DHT22;74999;52.848;6.748;2024-01-30T00:09:33;7.70;99.90
57058;DHT22;74999;52.848;6.748;2024-01-30T00:11:59;7.70;99.90
57058;DHT22;74999;52.848;6.748;2024-01-30T00:14:24;8.30;99.90
57058;DHT22;74999;52.848;6.748;2024-01-30T00:16:51;7.60;99.90
57058;DHT22;74999;52.848;6.748;2024-01-30T00:19:17;7.60;99.90
57058;DHT22;74999;52.848;6.748;2024-01-30T00:21:43;7.70;99.90
57058;DHT22;74999;52.848;6.748;2024-01-30T00:24:09;7.60;99.90
57058;DHT22;74999;52.848;6.748;2024-01-30T00:26:34;7.60;99.90
57058;DHT22;74999;52.848;6.748;2024-01-30T00:29:00;7.60;99.90
57058;DHT22;74999;52.848;6.748;2024-01-30T00:31:26;7.60;99.90
57058;DHT22;74999;52.848;6.748;2024-01-30T00:33:51;7.60;99.90
57058;DHT22;74999;52.848;6.748;2024-01-30T00:36:17;7.70;99.90
57058;DHT22;74999;52.848;6.748;2024-01-30T00:38:43;7.60;99.90
57058;DHT22;74999;52.848;6.748;2024-01-30T00:41:09;7.50;99.90
57058;DHT22;74999;52.848;6.748;2024-01-30T00:43:35;7.60;99.90
57058;DHT22;74999;52.848;6.748;2024-01-30T00:46:01;7.60;99.90
57058;DHT22;74999;52.848;6.748;2024-01-30T00:48:26;7.60;99.90
57058;DHT22;74999;52.848;6.748;2024-01-30T00:50:52;7.70;99.90
57058;DHT22;74999;52.848;6.748;2024-01-30T00:53:18;7.70;99.90
57058;DHT22;74999;52.848;6.748;2024-01-30T00:55:43;7.60;99.90
57058;DHT22;74999;52.848;6.748;2024-01-30T00:58:09;7.70;99.90
57058;DHT22;74999;52.848;6.748;2024-01-30T01:00:34;7.70;99.90
57058;DHT22;74999;52.848;6.748;2024-01-30T01:03:00;7.70;99.90
57058;DHT22;74999;52.848;6.748;2024-01-30T01:05:26;7.60;99.90
57058;DHT22;74999;52.848;6.748;2024-01-30T01:07:51;7.70;99.90
57058;DHT22;74999;52.848;6.748;2024-01-30T01:10:17;7.60;99.90
57058;DHT22;74999;52.848;6.748;2024-01-30T01:12:44;7.70;99.90
57058;DHT22;74999;52.848;6.748;2024-01-30T01:15:10;7.60;99.90
57058;DHT22;74999;52.848;6.748;2024-01-30T01:17:36;7.70;99.90
57058;DHT22;74999;52.848;6.748;2024-01-30T01:20:03;7.70;99.90
57058;DHT22;74999;52.848;6.748;2024-01-30T01:22:30;7.60;99.90
57058;DHT22;74999;52.848;6.748;2024-01-30T01:24:56;7.60;99.90
57058;DHT22;74999;52.848;6.748;2024-01-30T01:27:22;7.60;99.90
57058;DHT22;74999;52.848;6.748;2024-01-30T01:29:47;7.60;99.90
57058;DHT22;74999;52.848;6.748;2024-01-30T01:32:13;7.60;99.90
57058;DHT22;74999;52.848;6.748;2024-01-30T01:34:39;7.60;99.90
57058;DHT22;74999;52.848;6.748;2024-01-30T01:37:04;7.60;99.90
57058;DHT22;74999;52.848;6.748;2024-01-30T01:39:30;7.60;99.90
57058;DHT22;74999;52.848;6.748;2024-01-30T01:41:55;7.70;99.90
57058;DHT22;74999;52.848;6.748;2024-01-30T01:44:21;7.70;99.90
57058;DHT22;74999;52.848;6.748;2024-01-30T01:46:47;7.60;99.90
57058;DHT22;74999;52.848;6.748;2024-01-30T01:49:14;7.60;99.90
57058;DHT22;74999;52.848;6.748;2024-01-30T01:51:40;7.70;99.90
57058;DHT22;74999;52.848;6.748;2024-01-30T01:54:06;7.70;99.90
57058;DHT22;74999;52.848;6.748;2024-01-30T01:56:33;7.60;99.90
57058;DHT22;74999;52.848;6.748;2024-01-30T01:59:06;7.80;99.90
57058;DHT22;74999;52.848;6.748;2024-01-30T02:01:36;7.90;99.90
57058;DHT22;74999;52.848;6.748;2024-01-30T02:04:02;7.60;99.90
57058;DHT22;74999;52.848;6.748;2024-01-30T02:06:28;7.60;99.90
57058;DHT22;74999;52.848;6.748;2024-01-30T02:08:54;7.60;99.90
57058;DHT22;74999;52.848;6.748;2024-01-30T02:11:21;7.60;99.90
57058;DHT22;74999;52.848;6.748;2024-01-30T02:13:47;7.80;99.90
57058;DHT22;74999;52.848;6.748;2024-01-30T02:16:13;7.60;99.90
57058;DHT22;74999;52.848;6.748;2024-01-30T02:18:38;7.70;99.90
57058;DHT22;74999;52.848;6.748;2024-01-30T02:21:08;7.70;99.90
57058;DHT22;74999;52.848;6.748;2024-01-30T02:23:34;7.80;99.90
57058;DHT22;74999;52.848;6.748;2024-01-30T02:26:00;7.80;99.90
57058;DHT22;74999;52.848;6.748;2024-01-30T02:28:26;7.60;99.90
57058;DHT22;74999;52.848;6.748;2024-01-30T02:30:53;7.70;99.90
57058;DHT22;74999;52.848;6.748;2024-01-30T02:33:18;7.80;99.90
57058;DHT22;74999;52.848;6.748;2024-01-30T02:35:44;7.70;99.90
57058;DHT22;74999;52.848;6.748;2024-01-30T02:38:10;7.70;99.90
57058;DHT22;74999;52.848;6.748;2024-01-30T02:40:35;7.70;99.90
57058;DHT22;74999;52.848;6.748;2024-01-30T02:43:02;7.80;99.90
57058;DHT22;74999;52.848;6.748;2024-01-30T02:45:28;7.70;99.90
57058;DHT22;74999;52.848;6.748;2024-01-30T02:47:54;7.70;99.90
57058;DHT22;74999;52.848;6.748;2024-01-30T02:50:19;7.80;99.90
57058;DHT22;74999;52.848;6.748;2024-01-30T02:52:45;7.70;99.90
57058;DHT22;74999;52.848;6.748;2024-01-30T02:55:11;7.70;99.90
57058;DHT22;74999;52.848;6.748;2024-01-30T02:57:37;7.80;99.90
57058;DHT22;74999;52.848;6.748;2024-01-30T03:00:03;7.70;99.90
57058;DHT22;74999;52.848;6.748;2024-01-30T03:02:31;7.80;99.90
57058;DHT22;74999;52.848;6.748;2024-01-30T03:04:57;7.70;99.90
57058;DHT22;74999;52.848;6.748;2024-01-30T03:07:22;7.70;99.90
57058;DHT22;74999;52.848;6.748;2024-01-30T03:09:48;7.80;99.90
57058;DHT22;74999;52.848;6.748;2024-01-30T03:12:14;7.60;99.90
57058;DHT22;74999;52.848;6.748;2024-01-30T03:14:39;7.80;99.90
57058;DHT22;74999;52.848;6.748;2024-01-30T03:17:05;7.80;99.90
57058;DHT22;74999;52.848;6.748;2024-01-30T03:19:30;7.70;99.90
57058;DHT22;74999;52.848;6.748;2024-01-30T03:21:56;7.80;99.90
57058;DHT22;74999;52.848;6.748;2024-01-30T03:24:21;7.80;99.90
57058;DHT22;74999;52.848;6.748;2024-01-30T03:26:47;7.90;99.90
57058;DHT22;74999;52.848;6.748;2024-01-30T03:29:13;7.90;99.90
57058;DHT22;74999;52.848;6.748;2024-01-30T03:31:39;7.80;99.90
57058;DHT22;74999;52.848;6.748;2024-01-30T03:34:05;7.90;99.90
57058;DHT22;74999;52.848;6.748;2024-01-30T03:36:30;7.80;99.90
57058;DHT22;74999;52.848;6.748;2024-01-30T03:38:58;8.30;99.90
57058;DHT22;74999;52.848;6.748;2024-01-30T03:41:24;7.90;99.90
57058;DHT22;74999;52.848;6.748;2024-01-30T03:43:50;7.90;99.90
57058;DHT22;74999;52.848;6.748;2024-01-30T03:46:16;7.90;99.90
57058;DHT22;74999;52.848;6.748;2024-01-30T03:48:41;7.90;99.90
57058;DHT22;74999;52.848;6.748;2024-01-30T03:51:07;7.90;99.90
57058;DHT22;74999;52.848;6.748;2024-01-30T03:53:33;7.90;99.90
57058;DHT22;74999;52.848;6.748;2024-01-30T03:55:58;7.90;99.90
57058;DHT22;74999;52.848;6.748;2024-01-30T03:58:24;8.00;99.90
57058;DHT22;74999;52.848;6.748;2024-01-30T04:00:49;7.90;99.90
57058;DHT22;74999;52.848;6.748;2024-01-30T04:03:15;8.00;99.90
57058;DHT22;74999;52.848;6.748;2024-01-30T04:05:41;8.00;99.90
57058;DHT22;74999;52.848;6.748;2024-01-30T04:08:07;8.00;99.90
57058;DHT22;74999;52.848;6.748;2024-01-30T04:10:33;7.90;99.90
57058;DHT22;74999;52.848;6.748;2024-01-30T04:12:58;8.00;99.90
57058;DHT22;74999;52.848;6.748;2024-01-30T04:15:25;8.00;99.90
57058;DHT22;74999;52.848;6.748;2024-01-30T04:17:51;8.00;99.90
57058;DHT22;74999;52.848;6.748;2024-01-30T04:20:17;8.00;99.90
57058;DHT22;74999;52.848;6.748;2024-01-30T04:22:46;8.00;99.90
57058;DHT22;74999;52.848;6.748;2024-01-30T04:25:13;8.00;99.90
57058;DHT22;74999;52.848;6.748;2024-01-30T04:27:38;8.00;99.90
57058;DHT22;74999;52.848;6.748;2024-01-30T04:30:05;8.00;99.90
57058;DHT22;74999;52.848;6.748;2024-01-30T04:32:31;7.90;99.90
57058;DHT22;74999;52.848;6.748;2024-01-30T04:34:56;8.00;99.90
57058;DHT22;74999;52.848;6.748;2024-01-30T04:37:22;8.00;99.90
57058;DHT22;74999;52.848;6.748;2024-01-30T04:39:48;8.00;99.90
57058;DHT22;74999;52.848;6.748;2024-01-30T04:42:14;8.10;99.90
57058;DHT22;74999;52.848;6.748;2024-01-30T04:44:39;8.00;99.90
57058;DHT22;74999;52.848;6.748;2024-01-30T04:47:05;8.00;99.90
57058;DHT22;74999;52.848;6.748;2024-01-30T04:49:33;7.90;99.90
57058;DHT22;74999;52.848;6.748;2024-01-30T04:51:59;8.10;99.90
57058;DHT22;74999;52.848;6.748;2024-01-30T04:54:24;8.00;99.90
57058;DHT22;74999;52.848;6.748;2024-01-30T04:56:51;8.10;99.90
57058;DHT22;74999;52.848;6.748;2024-01-30T04:59:16;8.00;99.90
57058;DHT22;74999;52.848;6.748;2024-01-30T05:01:42;8.00;99.90
57058;DHT22;74999;52.848;6.748;2024-01-30T05:04:08;8.90;99.90
57058;DHT22;74999;52.848;6.748;2024-01-30T05:06:34;8.20;99.90
57058;DHT22;74999;52.848;6.748;2024-01-30T05:09:00;8.20;99.90
57058;DHT22;74999;52.848;6.748;2024-01-30T05:11:25;7.90;99.90
57058;DHT22;74999;52.848;6.748;2024-01-30T05:13:51;8.10;99.90
57058;DHT22;74999;52.848;6.748;2024-01-30T05:16:16;8.30;99.90
57058;DHT22;74999;52.848;6.748;2024-01-30T05:18:42;8.20;99.90
57058;DHT22;74999;52.848;6.748;2024-01-30T05:21:07;8.20;99.90
57058;DHT22;74999;52.848;6.748;2024-01-30T05:23:33;8.20;99.90
57058;DHT22;74999;52.848;6.748;2024-01-30T05:25:59;8.20;99.90
57058;DHT22;74999;52.848;6.748;2024-01-30T05:28:28;8.20;99.90
57058;DHT22;74999;52.848;6.748;2024-01-30T05:30:54;8.30;99.90
57058;DHT22;74999;52.848;6.748;2024-01-30T05:33:19;8.20;99.90
57058;DHT22;74999;52.848;6.748;2024-01-30T05:35:45;8.20;99.90
57058;DHT22;74999;52.848;6.748;2024-01-30T05:38:11;8.20;99.90
57058;DHT22;74999;52.848;6.748;2024-01-30T05:40:36;8.20;99.90
57058;DHT22;74999;52.848;6.748;2024-01-30T05:43:02;8.20;99.90
57058;DHT22;74999;52.848;6.748;2024-01-30T05:45:28;8.30;99.90
57058;DHT22;74999;52.848;6.748;2024-01-30T05:47:54;8.30;99.90
57058;DHT22;74999;52.848;6.748;2024-01-30T05:50:20;8.20;99.90
57058;DHT22;74999;52.848;6.748;2024-01-30T05:52:45;9.20;99.90
57058;DHT22;74999;52.848;6.748;2024-01-30T05:55:11;8.10;99.90
57058;DHT22;74999;52.848;6.748;2024-01-30T05:57:38;8.20;99.90
57058;DHT22;74999;52.848;6.748;2024-01-30T06:00:04;8.20;99.90
57058;DHT22;74999;52.848;6.748;2024-01-30T06:02:31;8.10;99.90
57058;DHT22;74999;52.848;6.748;2024-01-30T06:04:56;8.20;99.90
57058;DHT22;74999;52.848;6.748;2024-01-30T06:07:22;8.30;99.90
57058;DHT22;74999;52.848;6.748;2024-01-30T06:09:48;8.20;99.90
57058;DHT22;74999;52.848;6.748;2024-01-30T06:12:13;8.20;99.90
57058;DHT22;74999;52.848;6.748;2024-01-30T06:14:39;8.30;99.90
57058;DHT22;74999;52.848;6.748;2024-01-30T06:17:05;8.30;99.90
57058;DHT22;74999;52.848;6.748;2024-01-30T06:19:30;8.20;99.90
57058;DHT22;74999;52.848;6.748;2024-01-30T06:21:57;8.30;99.90
57058;DHT22;74999;52.848;6.748;2024-01-30T06:24:22;8.30;99.90
57058;DHT22;74999;52.848;6.748;2024-01-30T06:26:48;8.20;99.90
57058;DHT22;74999;52.848;6.748;2024-01-30T06:29:13;8.20;99.90
57058;DHT22;74999;52.848;6.748;2024-01-30T06:31:43;8.20;99.90
57058;DHT22;74999;52.848;6.748;2024-01-30T06:34:09;8.20;99.90
57058;DHT22;74999;52.848;6.748;2024-01-30T06:36:36;8.20;99.90
57058;DHT22;74999;52.848;6.748;2024-01-30T06:39:03;8.20;99.90
57058;DHT22;74999;52.848;6.748;2024-01-30T06:41:29;8.20;99.90
57058;DHT22;74999;52.848;6.748;2024-01-30T06:43:55;8.20;99.90
57058;DHT22;74999;52.848;6.748;2024-01-30T06:46:21;8.20;99.90
57058;DHT22;74999;52.848;6.748;2024-01-30T06:48:46;8.20;99.90
57058;DHT22;74999;52.848;6.748;2024-01-30T06:51:12;8.30;99.90
57058;DHT22;74999;52.848;6.748;2024-01-30T06:53:38;8.10;99.90
57058;DHT22;74999;52.848;6.748;2024-01-30T06:56:04;8.20;99.90
57058;DHT22;74999;52.848;6.748;2024-01-30T06:58:29;8.20;99.90
57058;DHT22;74999;52.848;6.748;2024-01-30T07:00:56;8.20;99.90
57058;DHT22;74999;52.848;6.748;2024-01-30T07:03:21;8.20;99.90
57058;DHT22;74999;52.848;6.748;2024-01-30T07:05:47;8.30;99.90
57058;DHT22;74999;52.848;6.748;2024-01-30T07:08:15;8.30;99.90
57058;DHT22;74999;52.848;6.748;2024-01-30T07:10:45;8.20;99.90
57058;DHT22;74999;52.848;6.748;2024-01-30T07:13:11;8.20;99.90
57058;DHT22;74999;52.848;6.748;2024-01-30T07:15:37;8.20;99.90
57058;DHT22;74999;52.848;6.748;2024-01-30T07:18:04;8.10;99.90
57058;DHT22;74999;52.848;6.748;2024-01-30T07:20:30;8.10;99.90
57058;DHT22;74999;52.848;6.748;2024-01-30T07:22:58;8.10;99.90
57058;DHT22;74999;52.848;6.748;2024-01-30T07:25:23;8.10;99.90
57058;DHT22;74999;52.848;6.748;2024-01-30T07:27:58;8.10;99.90
57058;DHT22;74999;52.848;6.748;2024-01-30T07:30:23;8.10;99.90
57058;DHT22;74999;52.848;6.748;2024-01-30T07:32:49;8.20;99.90
57058;DHT22;74999;52.848;6.748;2024-01-30T07:35:15;8.20;99.90
57058;DHT22;74999;52.848;6.748;2024-01-30T07:37:40;8.10;99.90
57058;DHT22;74999;52.848;6.748;2024-01-30T07:40:06;8.20;99.90
57058;DHT22;74999;52.848;6.748;2024-01-30T07:42:32;8.20;99.90
57058;DHT22;74999;52.848;6.748;2024-01-30T07:44:59;8.20;99.90
57058;DHT22;74999;52.848;6.748;2024-01-30T07:47:25;8.20;99.90
57058;DHT22;74999;52.848;6.748;2024-01-30T07:49:51;8.30;99.90
57058;DHT22;74999;52.848;6.748;2024-01-30T07:52:17;8.20;99.90
57058;DHT22;74999;52.848;6.748;2024-01-30T07:54:49;8.30;99.90
57058;DHT22;74999;52.848;6.748;2024-01-30T07:57:15;8.20;99.90
57058;DHT22;74999;52.848;6.748;2024-01-30T07:59:44;8.20;99.90
57058;DHT22;74999;52.848;6.748;2024-01-30T08:02:13;8.20;99.90
57058;DHT22;74999;52.848;6.748;2024-01-30T08:04:39;8.30;99.90
57058;DHT22;74999;52.848;6.748;2024-01-30T08:07:05;8.20;99.90
57058;DHT22;74999;52.848;6.748;2024-01-30T08:09:30;8.30;99.90
57058;DHT22;74999;52.848;6.748;2024-01-30T08:11:56;8.30;99.90
57058;DHT22;74999;52.848;6.748;2024-01-30T08:14:22;8.20;99.90
57058;DHT22;74999;52.848;6.748;2024-01-30T08:16:47;8.30;99.90
57058;DHT22;74999;52.848;6.748;2024-01-30T08:19:15;8.30;99.90
57058;DHT22;74999;52.848;6.748;2024-01-30T08:21:40;8.30;99.90
57058;DHT22;74999;52.848;6.748;2024-01-30T08:24:07;8.50;99.90
57058;DHT22;74999;52.848;6.748;2024-01-30T08:26:33;8.30;99.90
57058;DHT22;74999;52.848;6.748;2024-01-30T08:28:59;8.40;99.90
57058;DHT22;74999;52.848;6.748;2024-01-30T08:31:24;8.40;99.90
57058;DHT22;74999;52.848;6.748;2024-01-30T08:33:50;8.40;99.90
57058;DHT22;74999;52.848;6.748;2024-01-30T08:36:17;9.30;99.90
57058;DHT22;74999;52.848;6.748;2024-01-30T08:38:42;8.50;99.90
57058;DHT22;74999;52.848;6.748;2024-01-30T08:41:08;8.50;99.90
57058;DHT22;74999;52.848;6.748;2024-01-30T08:43:34;8.50;99.90
57058;DHT22;74999;52.848;6.748;2024-01-30T08:46:00;8.50;99.90
57058;DHT22;74999;52.848;6.748;2024-01-30T08:48:26;8.60;99.90
57058;DHT22;74999;52.848;6.748;2024-01-30T08:50:52;8.50;99.90
57058;DHT22;74999;52.848;6.748;2024-01-30T08:53:17;8.70;99.90
57058;DHT22;74999;52.848;6.748;2024-01-30T08:55:44;8.60;99.90
57058;DHT22;74999;52.848;6.748;2024-01-30T08:58:09;8.70;99.90
57058;DHT22;74999;52.848;6.748;2024-01-30T09:00:35;8.70;99.90
57058;DHT22;74999;52.848;6.748;2024-01-30T09:03:01;8.80;99.90
57058;DHT22;74999;52.848;6.748;2024-01-30T09:05:26;8.80;99.90
57058;DHT22;74999;52.848;6.748;2024-01-30T09:07:52;8.80;99.90
57058;DHT22;74999;52.848;6.748;2024-01-30T09:10:19;8.90;99.90
57058;DHT22;74999;52.848;6.748;2024-01-30T09:12:44;8.90;99.90
57058;DHT22;74999;52.848;6.748;2024-01-30T09:15:10;8.90;99.90
57058;DHT22;74999;52.848;6.748;2024-01-30T09:17:36;8.90;99.90
57058;DHT22;74999;52.848;6.748;2024-01-30T09:20:01;9.10;99.90
57058;DHT22;74999;52.848;6.748;2024-01-30T09:22:27;9.20;99.90
57058;DHT22;74999;52.848;6.748;2024-01-30T09:24:53;9.10;99.90
57058;DHT22;74999;52.848;6.748;2024-01-30T09:27:18;9.00;99.90
57058;DHT22;74999;52.848;6.748;2024-01-30T09:29:44;9.00;99.90
57058;DHT22;74999;52.848;6.748;2024-01-30T09:32:10;9.10;99.90
57058;DHT22;74999;52.848;6.748;2024-01-30T09:34:35;9.20;99.90
57058;DHT22;74999;52.848;6.748;2024-01-30T09:37:01;9.30;99.90
57058;DHT22;74999;52.848;6.748;2024-01-30T09:39:27;9.30;99.90
57058;DHT22;74999;52.848;6.748;2024-01-30T09:42:05;9.30;99.90
57058;DHT22;74999;52.848;6.748;2024-01-30T09:44:35;9.40;99.90
57058;DHT22;74999;52.848;6.748;2024-01-30T09:47:02;9.40;99.90
57058;DHT22;74999;52.848;6.748;2024-01-30T09:49:34;9.30;99.90
57058;DHT22;74999;52.848;6.748;2024-01-30T09:52:01;9.30;99.90
57058;DHT22;74999;52.848;6.748;2024-01-30T09:54:30;9.30;99.90
57058;DHT22;74999;52.848;6.748;2024-01-30T09:56:55;9.30;99.90
57058;DHT22;74999;52.848;6.748;2024-01-30T09:59:21;9.40;99.90
57058;DHT22;74999;52.848;6.748;2024-01-30T10:01:47;9.30;99.90
57058;DHT22;74999;52.848;6.748;2024-01-30T10:04:13;9.90;99.90
57058;DHT22;74999;52.848;6.748;2024-01-30T10:06:40;9.40;99.90
57058;DHT22;74999;52.848;6.748;2024-01-30T10:09:05;9.40;99.90
57058;DHT22;74999;52.848;6.748;2024-01-30T10:11:31;9.50;99.90
57058;DHT22;74999;52.848;6.748;2024-01-30T10:13:57;9.60;99.90
57058;DHT22;74999;52.848;6.748;2024-01-30T10:16:22;9.60;99.90
57058;DHT22;74999;52.848;6.748;2024-01-30T10:18:49;9.70;99.90
57058;DHT22;74999;52.848;6.748;2024-01-30T10:21:14;9.80;99.90
57058;DHT22;74999;52.848;6.748;2024-01-30T10:23:40;9.70;99.90
57058;DHT22;74999;52.848;6.748;2024-01-30T10:26:07;9.80;99.90
57058;DHT22;74999;52.848;6.748;2024-01-30T10:28:33;9.80;99.90
57058;DHT22;74999;52.848;6.748;2024-01-30T10:30:59;9.90;99.90
57058;DHT22;74999;52.848;6.748;2024-01-30T10:33:26;9.90;99.90
57058;DHT22;74999;52.848;6.748;2024-01-30T10:35:54;9.90;99.90
57058;DHT22;74999;52.848;6.748;2024-01-30T10:38:23;10.00;99.90
57058;DHT22;74999;52.848;6.748;2024-01-30T10:40:52;10.10;99.90
57058;DHT22;74999;52.848;6.748;2024-01-30T10:43:22;10.10;99.90
57058;DHT22;74999;52.848;6.748;2024-01-30T10:45:49;10.10;99.90
57058;DHT22;74999;52.848;6.748;2024-01-30T10:48:19;10.20;99.90
57058;DHT22;74999;52.848;6.748;2024-01-30T10:50:50;10.20;99.90
57058;DHT22;74999;52.848;6.748;2024-01-30T10:53:18;10.20;99.90
57058;DHT22;74999;52.848;6.748;2024-01-30T10:55:44;10.20;99.90
57058;DHT22;74999;52.848;6.748;2024-01-30T10:58:12;10.20;99.90
57058;DHT22;74999;52.848;6.748;2024-01-30T11:00:40;10.20;99.90
57058;DHT22;74999;52.848;6.748;2024-01-30T11:03:07;10.40;99.90
57058;DHT22;74999;52.848;6.748;2024-01-30T11:05:33;10.20;99.90
57058;DHT22;74999;52.848;6.748;2024-01-30T11:07:58;10.30;99.90
57058;DHT22;74999;52.848;6.748;2024-01-30T11:10:25;10.30;99.90
57058;DHT22;74999;52.848;6.748;2024-01-30T11:12:50;10.30;99.90
57058;DHT22;74999;52.848;6.748;2024-01-30T11:15:17;10.40;99.90
57058;DHT22;74999;52.848;6.748;2024-01-30T11:17:52;10.30;99.90
57058;DHT22;74999;52.848;6.748;2024-01-30T11:20:21;10.40;99.90
57058;DHT22;74999;52.848;6.748;2024-01-30T11:22:49;10.40;99.90
57058;DHT22;74999;52.848;6.748;2024-01-30T11:25:17;10.40;99.90
57058;DHT22;74999;52.848;6.748;2024-01-30T11:27:43;10.50;99.90
57058;DHT22;74999;52.848;6.748;2024-01-30T11:30:09;10.50;99.90
57058;DHT22;74999;52.848;6.748;2024-01-30T11:32:35;10.40;99.90
57058;DHT22;74999;52.848;6.748;2024-01-30T11:35:04;10.50;99.90
57058;DHT22;74999;52.848;6.748;2024-01-30T11:37:31;10.50;99.90
57058;DHT22;74999;52.848;6.748;2024-01-30T11:39:58;10.50;99.90
57058;DHT22;74999;52.848;6.748;2024-01-30T11:42:24;10.50;99.90
57058;DHT22;74999;52.848;6.748;2024-01-30T11:44:53;10.60;99.90
57058;DHT22;74999;52.848;6.748;2024-01-30T11:47:18;10.50;99.90
57058;DHT22;74999;52.848;6.748;2024-01-30T11:49:44;10.50;99.90
57058;DHT22;74999;52.848;6.748;2024-01-30T11:52:10;10.50;99.90
57058;DHT22;74999;52.848;6.748;2024-01-30T11:54:39;10.50;99.90
57058;DHT22;74999;52.848;6.748;2024-01-30T11:57:05;10.50;99.90
57058;DHT22;74999;52.848;6.748;2024-01-30T11:59:30;10.60;99.90
57058;DHT22;74999;52.848;6.748;2024-01-30T12:01:56;10.50;99.90
57058;DHT22;74999;52.848;6.748;2024-01-30T12:04:22;10.70;99.90
57058;DHT22;74999;52.848;6.748;2024-01-30T12:06:52;10.60;99.90
57058;DHT22;74999;52.848;6.748;2024-01-30T12:09:17;10.70;99.90
57058;DHT22;74999;52.848;6.748;2024-01-30T12:11:47;10.80;99.90
57058;DHT22;74999;52.848;6.748;2024-01-30T12:14:13;10.90;99.90
57058;DHT22;74999;52.848;6.748;2024-01-30T12:16:39;10.90;99.90
57058;DHT22;74999;52.848;6.748;2024-01-30T12:19:05;11.10;99.90
57058;DHT22;74999;52.848;6.748;2024-01-30T12:21:30;11.30;99.90
57058;DHT22;74999;52.848;6.748;2024-01-30T12:23:57;11.60;99.90
57058;DHT22;74999;52.848;6.748;2024-01-30T12:26:25;11.80;99.90
57058;DHT22;74999;52.848;6.748;2024-01-30T12:28:54;12.10;99.90
57058;DHT22;74999;52.848;6.748;2024-01-30T12:31:27;12.20;99.90
57058;DHT22;74999;52.848;6.748;2024-01-30T12:33:53;12.20;99.90
57058;DHT22;74999;52.848;6.748;2024-01-30T12:36:19;12.20;99.90
57058;DHT22;74999;52.848;6.748;2024-01-30T12:38:45;12.00;99.90
57058;DHT22;74999;52.848;6.748;2024-01-30T12:41:10;12.00;99.90
57058;DHT22;74999;52.848;6.748;2024-01-30T12:43:36;12.00;99.90
57058;DHT22;74999;52.848;6.748;2024-01-30T12:46:03;11.90;99.90
57058;DHT22;74999;52.848;6.748;2024-01-30T12:48:28;11.80;99.90
57058;DHT22;74999;52.848;6.748;2024-01-30T12:50:56;11.80;99.90
57058;DHT22;74999;52.848;6.748;2024-01-30T12:53:21;11.70;99.90
57058;DHT22;74999;52.848;6.748;2024-01-30T12:55:47;11.50;99.90
57058;DHT22;74999;52.848;6.748;2024-01-30T12:58:12;11.60;99.90
57058;DHT22;74999;52.848;6.748;2024-01-30T13:00:38;11.50;99.90
57058;DHT22;74999;52.848;6.748;2024-01-30T13:03:04;11.60;99.90
57058;DHT22;74999;52.848;6.748;2024-01-30T13:05:29;11.40;99.90
57058;DHT22;74999;52.848;6.748;2024-01-30T13:07:55;11.40;99.90
57058;DHT22;74999;52.848;6.748;2024-01-30T13:10:22;11.30;99.90
57058;DHT22;74999;52.848;6.748;2024-01-30T13:12:48;11.30;99.90
57058;DHT22;74999;52.848;6.748;2024-01-30T13:15:14;11.20;99.90
57058;DHT22;74999;52.848;6.748;2024-01-30T13:17:40;11.20;99.90
57058;DHT22;74999;52.848;6.748;2024-01-30T13:20:07;11.20;99.90
57058;DHT22;74999;52.848;6.748;2024-01-30T13:22:33;11.00;99.90
57058;DHT22;74999;52.848;6.748;2024-01-30T13:24:59;11.00;99.90
57058;DHT22;74999;52.848;6.748;2024-01-30T13:27:25;11.00;99.90
57058;DHT22;74999;52.848;6.748;2024-01-30T13:29:50;11.00;99.90
57058;DHT22;74999;52.848;6.748;2024-01-30T13:32:16;10.90;99.90
57058;DHT22;74999;52.848;6.748;2024-01-30T13:34:41;10.90;99.90
57058;DHT22;74999;52.848;6.748;2024-01-30T13:37:08;10.90;99.90
57058;DHT22;74999;52.848;6.748;2024-01-30T13:39:34;10.80;99.90
57058;DHT22;74999;52.848;6.748;2024-01-30T13:41:59;10.80;99.90
57058;DHT22;74999;52.848;6.748;2024-01-30T13:44:25;10.80;99.90
57058;DHT22;74999;52.848;6.748;2024-01-30T13:46:51;10.80;99.90
57058;DHT22;74999;52.848;6.748;2024-01-30T13:49:16;10.80;99.90
57058;DHT22;74999;52.848;6.748;2024-01-30T13:51:42;10.70;99.90
57058;DHT22;74999;52.848;6.748;2024-01-30T13:54:08;10.60;99.90
57058;DHT22;74999;52.848;6.748;2024-01-30T13:56:34;10.60;99.90
57058;DHT22;74999;52.848;6.748;2024-01-30T13:58:59;10.60;99.90
57058;DHT22;74999;52.848;6.748;2024-01-30T14:01:26;10.60;99.90
57058;DHT22;74999;52.848;6.748;2024-01-30T14:03:52;10.50;99.90
57058;DHT22;74999;52.848;6.748;2024-01-30T14:06:18;10.40;99.90
57058;DHT22;74999;52.848;6.748;2024-01-30T14:08:44;10.40;99.90
57058;DHT22;74999;52.848;6.748;2024-01-30T14:11:09;10.50;99.90
57058;DHT22;74999;52.848;6.748;2024-01-30T14:13:35;10.50;99.90
57058;DHT22;74999;52.848;6.748;2024-01-30T14:16:01;10.40;99.90
57058;DHT22;74999;52.848;6.748;2024-01-30T14:18:27;10.40;99.90
57058;DHT22;74999;52.848;6.748;2024-01-30T14:20:52;10.30;99.90
57058;DHT22;74999;52.848;6.748;2024-01-30T14:23:18;10.40;99.90
57058;DHT22;74999;52.848;6.748;2024-01-30T14:25:44;10.30;99.90
57058;DHT22;74999;52.848;6.748;2024-01-30T14:28:10;10.20;99.90
57058;DHT22;74999;52.848;6.748;2024-01-30T14:30:35;10.30;99.90
57058;DHT22;74999;52.848;6.748;2024-01-30T14:33:01;10.20;99.90
57058;DHT22;74999;52.848;6.748;2024-01-30T14:35:27;10.30;99.90
57058;DHT22;74999;52.848;6.748;2024-01-30T14:37:53;10.10;99.90
57058;DHT22;74999;52.848;6.748;2024-01-30T14:40:18;10.30;99.90
57058;DHT22;74999;52.848;6.748;2024-01-30T14:42:44;10.20;99.90
57058;DHT22;74999;52.848;6.748;2024-01-30T14:45:10;10.10;99.90
57058;DHT22;74999;52.848;6.748;2024-01-30T14:47:37;10.10;99.90
57058;DHT22;74999;52.848;6.748;2024-01-30T14:50:03;10.10;99.90
57058;DHT22;74999;52.848;6.748;2024-01-30T14:52:31;10.10;99.90
57058;DHT22;74999;52.848;6.748;2024-01-30T14:54:57;10.00;99.90
57058;DHT22;74999;52.848;6.748;2024-01-30T14:57:23;10.10;99.90
57058;DHT22;74999;52.848;6.748;2024-01-30T14:59:49;10.00;99.90
57058;DHT22;74999;52.848;6.748;2024-01-30T15:02:15;10.10;99.90
57058;DHT22;74999;52.848;6.748;2024-01-30T15:04:40;10.10;99.90
57058;DHT22;74999;52.848;6.748;2024-01-30T15:07:06;10.00;99.90
57058;DHT22;74999;52.848;6.748;2024-01-30T15:09:31;9.90;99.90
57058;DHT22;74999;52.848;6.748;2024-01-30T15:11:57;10.00;99.90
57058;DHT22;74999;52.848;6.748;2024-01-30T15:14:23;10.00;99.90
57058;DHT22;74999;52.848;6.748;2024-01-30T15:16:49;10.00;99.90
57058;DHT22;74999;52.848;6.748;2024-01-30T15:19:15;9.90;99.90
57058;DHT22;74999;52.848;6.748;2024-01-30T15:21:41;10.00;99.90
57058;DHT22;74999;52.848;6.748;2024-01-30T15:24:06;9.90;99.90
57058;DHT22;74999;52.848;6.748;2024-01-30T15:26:32;9.80;99.90
57058;DHT22;74999;52.848;6.748;2024-01-30T15:28:58;9.90;99.90
57058;DHT22;74999;52.848;6.748;2024-01-30T15:31:23;9.80;99.90
57058;DHT22;74999;52.848;6.748;2024-01-30T15:33:49;9.80;99.90
57058;DHT22;74999;52.848;6.748;2024-01-30T15:36:14;9.80;99.90